createdAt,value
2018-01-05T00:00:16.034Z,21.90
2018-01-05T00:00:51.367Z,13.50
2018-01-05T00:01:26.948Z,14.50
2018-01-05T00:02:02.254Z,16.30
2018-01-05T00:02:37.440Z,18.80
2018-01-05T00:03:12.940Z,14.90
2018-01-05T00:03:48.243Z,12.50
2018-01-05T00:04:23.823Z,12.50
2018-01-05T00:05:05.537Z,10.30
2018-01-05T00:05:40.853Z,9.80
2018-01-05T00:06:16.161Z,12.70
2018-01-05T00:06:51.374Z,18.90
2018-01-05T00:07:26.769Z,15.40
2018-01-05T00:08:02.163Z,15.60
2018-01-05T00:08:37.445Z,12.90
2018-01-05T00:09:12.877Z,14.10
2018-01-05T00:09:48.565Z,9.20
2018-01-05T00:10:23.974Z,9.90
2018-01-05T00:11:01.198Z,11.80
2018-01-05T00:11:38.381Z,12.30
2018-01-05T00:12:13.793Z,11.10
2018-01-05T00:12:49.684Z,13.50
2018-01-05T00:13:24.799Z,17.00
2018-01-05T00:13:59.994Z,16.60
2018-01-05T00:14:36.291Z,18.80
2018-01-05T00:15:11.808Z,14.90
2018-01-05T00:15:47.015Z,14.20
2018-01-05T00:16:22.228Z,18.20
2018-01-05T00:16:58.911Z,18.30
2018-01-05T00:17:34.205Z,13.00
2018-01-05T00:18:09.405Z,8.90
2018-01-05T00:18:45.088Z,8.00
2018-01-05T00:19:20.549Z,12.50
2018-01-05T00:19:55.670Z,12.10
2018-01-05T00:20:30.884Z,12.30
2018-01-05T00:21:06.502Z,10.10
2018-01-05T00:21:41.996Z,10.40
2018-01-05T00:22:17.796Z,12.20
2018-01-05T00:22:53.085Z,12.10
2018-01-05T00:23:29.393Z,14.10
2018-01-05T00:24:04.602Z,10.80
2018-01-05T00:24:40.583Z,10.90
2018-01-05T00:25:16.096Z,12.20
2018-01-05T00:25:52.403Z,13.60
2018-01-05T00:26:27.707Z,16.90
2018-01-05T00:27:03.306Z,15.90
2018-01-05T00:27:38.484Z,15.20
2018-01-05T00:28:13.879Z,13.20
2018-01-05T00:28:49.156Z,13.60
2018-01-05T00:29:24.480Z,16.40
2018-01-05T00:29:59.876Z,11.80
2018-01-05T00:30:35.782Z,11.60
2018-01-05T00:31:12.802Z,12.00
2018-01-05T00:31:48.385Z,8.50
2018-01-05T00:32:23.481Z,10.60
2018-01-05T00:32:59.086Z,14.80
2018-01-05T00:33:34.493Z,16.70
2018-01-05T00:34:09.996Z,16.70
2018-01-05T00:34:46.264Z,12.80
2018-01-05T00:35:21.570Z,8.80
2018-01-05T00:35:57.076Z,8.90
2018-01-05T00:36:32.480Z,9.40
2018-01-05T00:37:08.086Z,12.60
2018-01-05T00:37:44.069Z,12.00
2018-01-05T00:38:19.695Z,8.60
2018-01-05T00:38:54.941Z,11.30
2018-01-05T00:39:30.565Z,12.30
2018-01-05T00:40:06.006Z,10.50
2018-01-05T00:40:42.604Z,19.40
2018-01-05T00:41:18.143Z,18.10
2018-01-05T00:41:53.530Z,15.20
2018-01-05T00:42:28.732Z,12.00
2018-01-05T00:43:04.031Z,11.50
2018-01-05T00:43:39.327Z,11.50
2018-01-05T00:44:14.637Z,10.40
2018-01-05T00:44:52.415Z,12.20
2018-01-05T00:45:27.720Z,11.00
2018-01-05T00:46:03.921Z,8.50
2018-01-05T00:46:40.209Z,10.90
2018-01-05T00:47:15.413Z,16.10
2018-01-05T00:47:51.995Z,19.40
2018-01-05T00:48:27.501Z,13.90
2018-01-05T00:49:02.779Z,11.80
2018-01-05T00:49:38.488Z,11.40
2018-01-05T00:50:13.591Z,11.60
2018-01-05T00:50:51.062Z,7.70
2018-01-05T00:51:26.382Z,11.10
2018-01-05T00:52:01.461Z,19.40
2018-01-05T00:52:37.176Z,18.70
2018-01-05T00:53:12.781Z,14.30
2018-01-05T00:53:48.359Z,14.60
2018-01-05T00:54:23.659Z,14.10
2018-01-05T00:54:59.333Z,16.90
2018-01-05T00:55:34.938Z,11.90
2018-01-05T00:56:10.364Z,13.60
2018-01-05T00:56:45.538Z,18.80
2018-01-05T00:57:20.838Z,16.60
2018-01-05T00:57:56.025Z,12.70
2018-01-05T00:58:31.423Z,13.90
2018-01-05T00:59:07.180Z,14.10
2018-01-05T00:59:42.609Z,16.70
2018-01-05T01:00:18.018Z,15.00
2018-01-05T01:00:53.111Z,14.50
2018-01-05T01:01:28.443Z,11.10
2018-01-05T01:02:03.649Z,16.50
2018-01-05T01:02:38.819Z,15.30
2018-01-05T01:03:14.224Z,9.30
2018-01-05T01:03:49.491Z,12.60
2018-01-05T01:04:24.588Z,13.30
2018-01-05T01:05:00.080Z,14.00
2018-01-05T01:05:37.203Z,13.90
2018-01-05T01:06:13.939Z,15.00
2018-01-05T01:06:49.092Z,15.50
2018-01-05T01:07:24.295Z,12.90
2018-01-05T01:07:59.583Z,10.50
2018-01-05T01:08:34.801Z,9.70
2018-01-05T01:09:10.004Z,8.50
2018-01-05T01:09:45.192Z,10.30
2018-01-05T01:10:20.616Z,13.30
2018-01-05T01:10:55.980Z,13.30
2018-01-05T01:11:31.306Z,12.30
2018-01-05T01:12:06.505Z,10.00
2018-01-05T01:12:41.892Z,12.50
2018-01-05T01:13:17.370Z,17.70
2018-01-05T01:13:52.661Z,13.50
2018-01-05T01:14:28.057Z,8.40
2018-01-05T01:15:03.338Z,11.10
2018-01-05T01:15:39.352Z,12.60
2018-01-05T01:16:14.755Z,8.40
2018-01-05T01:16:50.157Z,15.60
2018-01-05T01:17:25.469Z,17.90
2018-01-05T01:18:00.987Z,15.50
2018-01-05T01:18:36.400Z,12.10
2018-01-05T01:19:12.008Z,13.10
2018-01-05T01:19:47.696Z,12.70
2018-01-05T01:20:23.132Z,14.40
2018-01-05T01:20:58.402Z,13.80
2018-01-05T01:21:34.031Z,13.20
2018-01-05T01:22:09.328Z,11.70
2018-01-05T01:22:46.912Z,10.30
2018-01-05T01:23:22.323Z,11.90
2018-01-05T01:23:57.517Z,14.90
2018-01-05T01:24:32.866Z,23.90
2018-01-05T01:25:08.461Z,26.60
2018-01-05T01:25:45.852Z,18.20
2018-01-05T01:26:21.366Z,15.50
2018-01-05T01:26:57.074Z,12.80
2018-01-05T01:27:32.573Z,13.20
2018-01-05T01:28:08.080Z,7.40
2018-01-05T01:28:43.463Z,10.60
2018-01-05T01:29:18.566Z,14.50
2018-01-05T01:29:53.743Z,11.60
2018-01-05T01:30:29.045Z,13.00
2018-01-05T01:31:04.350Z,12.80
2018-01-05T01:31:40.054Z,14.20
2018-01-05T01:32:15.671Z,16.30
2018-01-05T01:32:53.567Z,10.90
2018-01-05T01:33:32.779Z,8.30
2018-01-05T01:34:08.305Z,10.30
2018-01-05T01:34:44.666Z,12.20
2018-01-05T01:35:20.078Z,11.50
2018-01-05T01:35:55.559Z,10.00
2018-01-05T01:36:30.790Z,8.40
2018-01-05T01:37:08.003Z,18.40
2018-01-05T01:37:43.317Z,14.80
2018-01-05T01:38:18.618Z,10.80
2018-01-05T01:38:54.299Z,17.10
2018-01-05T01:39:32.595Z,18.00
2018-01-05T01:40:07.903Z,12.60
2018-01-05T01:40:43.880Z,16.80
2018-01-05T01:41:19.297Z,15.20
2018-01-05T01:41:54.611Z,12.90
2018-01-05T01:42:30.214Z,13.40
2018-01-05T01:43:05.618Z,15.00
2018-01-05T01:43:42.396Z,19.90
2018-01-05T01:44:17.900Z,19.70
2018-01-05T01:44:53.085Z,14.90
2018-01-05T01:45:29.131Z,11.00
2018-01-05T01:46:04.247Z,13.10
2018-01-05T01:46:39.850Z,23.40
2018-01-05T01:47:15.251Z,17.50
2018-01-05T01:47:50.846Z,14.80
2018-01-05T01:48:26.261Z,13.80
2018-01-05T01:49:01.641Z,8.30
2018-01-05T01:49:37.050Z,9.20
2018-01-05T01:50:12.559Z,13.50
2018-01-05T01:50:49.848Z,15.30
2018-01-05T01:51:25.152Z,15.80
2018-01-05T01:52:00.651Z,20.90
2018-01-05T01:52:36.081Z,20.30
2018-01-05T01:53:12.286Z,13.20
2018-01-05T01:53:47.366Z,16.50
2018-01-05T01:54:22.875Z,17.80
2018-01-05T01:54:58.568Z,18.10
2018-01-05T01:55:33.974Z,15.00
2018-01-05T01:56:09.277Z,16.30
2018-01-05T01:56:44.491Z,13.70
2018-01-05T01:57:19.995Z,15.80
2018-01-05T01:57:55.482Z,15.20
2018-01-05T01:58:30.884Z,15.50
2018-01-05T01:59:06.563Z,17.70
2018-01-05T01:59:42.268Z,20.70
2018-01-05T02:00:17.795Z,16.60
2018-01-05T02:00:53.165Z,16.70
2018-01-05T02:01:28.484Z,14.30
2018-01-05T02:02:03.894Z,15.50
2018-01-05T02:02:40.392Z,15.30
2018-01-05T02:03:15.800Z,15.20
2018-01-05T02:03:51.400Z,17.50
2018-01-05T02:04:26.809Z,14.30
2018-01-05T02:05:02.190Z,13.80
2018-01-05T02:05:40.918Z,7.90
2018-01-05T02:06:16.420Z,11.10
2018-01-05T02:06:51.800Z,17.80
2018-01-05T02:07:27.236Z,18.50
2018-01-05T02:08:02.918Z,13.20
2018-01-05T02:08:39.257Z,18.00
2018-01-05T02:09:14.548Z,18.40
2018-01-05T02:09:49.856Z,17.60
2018-01-05T02:10:25.237Z,13.80
2018-01-05T02:11:01.016Z,15.40
2018-01-05T02:11:36.327Z,15.60
2018-01-05T02:12:11.601Z,17.20
2018-01-05T02:12:46.832Z,18.60
2018-01-05T02:13:22.134Z,16.50
2018-01-05T02:13:57.610Z,14.80
2018-01-05T02:14:33.413Z,12.90
2018-01-05T02:15:08.698Z,14.90
2018-01-05T02:15:44.596Z,17.20
2018-01-05T02:16:19.699Z,19.40
2018-01-05T02:16:55.372Z,21.60
2018-01-05T02:17:30.680Z,14.80
2018-01-05T02:18:05.794Z,15.60
2018-01-05T02:18:41.392Z,19.10
2018-01-05T02:19:16.989Z,13.00
2018-01-05T02:19:52.582Z,13.70
2018-01-05T02:20:28.089Z,17.90
2018-01-05T02:21:03.370Z,17.60
2018-01-05T02:21:39.002Z,11.90
2018-01-05T02:22:14.116Z,16.90
2018-01-05T02:22:53.801Z,15.90
2018-01-05T02:23:29.130Z,13.80
2018-01-05T02:24:04.515Z,15.30
2018-01-05T02:24:41.217Z,17.70
2018-01-05T02:25:16.618Z,15.20
2018-01-05T02:25:54.395Z,15.20
2018-01-05T02:26:29.794Z,14.30
2018-01-05T02:27:05.088Z,13.40
2018-01-05T02:27:41.294Z,13.30
2018-01-05T02:28:16.611Z,12.80
2018-01-05T02:28:52.816Z,17.30
2018-01-05T02:29:28.118Z,22.20
2018-01-05T02:30:03.696Z,15.50
2018-01-05T02:30:39.507Z,10.50
2018-01-05T02:31:15.213Z,9.30
2018-01-05T02:31:50.604Z,15.80
2018-01-05T02:32:28.909Z,15.60
2018-01-05T02:33:04.312Z,15.60
2018-01-05T02:33:39.617Z,22.60
2018-01-05T02:34:15.049Z,21.90
2018-01-05T02:34:50.532Z,20.70
2018-01-05T02:35:25.849Z,20.10
2018-01-05T02:36:01.043Z,16.70
2018-01-05T02:36:37.785Z,15.20
2018-01-05T02:37:13.177Z,10.90
2018-01-05T02:37:48.388Z,15.50
2018-01-05T02:38:24.005Z,17.10
2018-01-05T02:38:59.185Z,16.80
2018-01-05T02:39:34.516Z,21.10
2018-01-05T02:40:09.817Z,15.30
2018-01-05T02:40:46.727Z,10.00
2018-01-05T02:41:24.343Z,8.50
2018-01-05T02:41:59.636Z,11.80
2018-01-05T02:42:36.640Z,15.00
2018-01-05T02:43:11.725Z,12.10
2018-01-05T02:43:48.932Z,13.90
2018-01-05T02:44:24.242Z,15.40
2018-01-05T02:45:00.060Z,13.80
2018-01-05T02:45:35.958Z,12.10
2018-01-05T02:46:11.545Z,13.50
2018-01-05T02:46:48.849Z,15.90
2018-01-05T02:47:24.356Z,9.80
2018-01-05T02:47:59.872Z,8.70
2018-01-05T02:48:35.190Z,11.10
2018-01-05T02:49:10.779Z,14.70
2018-01-05T02:49:47.093Z,14.60
2018-01-05T02:50:22.455Z,16.20
2018-01-05T02:50:57.640Z,17.30
2018-01-05T02:51:32.956Z,9.20
2018-01-05T02:52:08.449Z,11.00
2018-01-05T02:52:45.071Z,16.20
2018-01-05T02:53:20.262Z,19.50
2018-01-05T02:53:55.579Z,19.10
2018-01-05T02:54:30.890Z,16.10
2018-01-05T02:55:06.476Z,10.90
2018-01-05T02:55:41.920Z,17.60
2018-01-05T02:56:17.002Z,18.50
2018-01-05T02:56:52.601Z,19.60
2018-01-05T02:57:27.916Z,17.20
2018-01-05T02:58:03.304Z,13.20
2018-01-05T02:58:39.121Z,15.10
2018-01-05T02:59:14.598Z,18.70
2018-01-05T02:59:50.098Z,15.10
2018-01-05T03:00:25.512Z,14.20
2018-01-05T03:01:04.918Z,13.70
2018-01-05T03:01:40.537Z,18.70
2018-01-05T03:02:15.937Z,15.30
2018-01-05T03:02:51.549Z,14.30
2018-01-05T03:03:26.845Z,22.40
2018-01-05T03:04:02.128Z,18.50
2018-01-05T03:04:37.692Z,15.30
2018-01-05T03:05:13.570Z,17.80
2018-01-05T03:05:48.883Z,15.20
2018-01-05T03:06:24.166Z,12.00
2018-01-05T03:06:59.615Z,16.20
2018-01-05T03:07:35.124Z,20.40
2018-01-05T03:08:10.517Z,18.20
2018-01-05T03:08:45.621Z,18.70
2018-01-05T03:09:21.104Z,16.20
2018-01-05T03:09:56.448Z,15.10
2018-01-05T03:10:31.853Z,14.60
2018-01-05T03:11:07.264Z,13.40
2018-01-05T03:11:42.602Z,14.80
2018-01-05T03:12:17.991Z,14.30
2018-01-05T03:12:53.601Z,14.00
2018-01-05T03:13:28.909Z,16.50
2018-01-05T03:14:04.495Z,17.30
2018-01-05T03:14:40.209Z,15.20
2018-01-05T03:15:15.494Z,18.90
2018-01-05T03:15:50.999Z,16.60
2018-01-05T03:16:26.309Z,16.50
2018-01-05T03:17:01.734Z,20.20
2018-01-05T03:17:36.948Z,20.80
2018-01-05T03:18:12.239Z,22.80
2018-01-05T03:18:47.541Z,16.70
2018-01-05T03:19:22.934Z,14.70
2018-01-05T03:19:58.241Z,17.40
2018-01-05T03:20:33.646Z,17.30
2018-01-05T03:21:09.433Z,16.50
2018-01-05T03:21:47.845Z,18.20
2018-01-05T03:22:23.158Z,17.60
2018-01-05T03:22:58.870Z,10.00
2018-01-05T03:23:34.283Z,15.20
2018-01-05T03:24:09.762Z,13.60
2018-01-05T03:24:45.281Z,16.60
2018-01-05T03:25:20.967Z,19.80
2018-01-05T03:25:58.375Z,18.10
2018-01-05T03:26:33.986Z,14.00
2018-01-05T03:27:09.165Z,21.70
2018-01-05T03:27:44.608Z,18.00
2018-01-05T03:28:20.082Z,15.40
2018-01-05T03:28:55.394Z,15.70
2018-01-05T03:29:30.824Z,18.30
2018-01-05T03:30:06.216Z,22.60
2018-01-05T03:30:42.928Z,22.60
2018-01-05T03:31:18.216Z,25.70
2018-01-05T03:31:53.735Z,26.30
2018-01-05T03:32:28.940Z,20.70
2018-01-05T03:33:04.544Z,16.70
2018-01-05T03:33:40.908Z,15.70
2018-01-05T03:34:16.334Z,17.90
2018-01-05T03:34:51.543Z,18.00
2018-01-05T03:35:26.665Z,18.70
2018-01-05T03:36:02.449Z,21.70
2018-01-05T03:36:38.152Z,21.50
2018-01-05T03:37:13.444Z,17.70
2018-01-05T03:37:49.252Z,19.20
2018-01-05T03:38:24.694Z,19.10
2018-01-05T03:38:59.676Z,19.40
2018-01-05T03:39:34.995Z,21.30
2018-01-05T03:40:10.381Z,21.00
2018-01-05T03:40:46.086Z,20.20
2018-01-05T03:41:22.096Z,19.60
2018-01-05T03:41:57.401Z,18.80
2018-01-05T03:42:32.885Z,22.30
2018-01-05T03:43:08.296Z,21.00
2018-01-05T03:43:44.444Z,19.80
2018-01-05T03:44:19.629Z,18.70
2018-01-05T03:44:54.952Z,16.00
2018-01-05T03:45:30.530Z,19.60
2018-01-05T03:46:05.940Z,28.20
2018-01-05T03:46:41.335Z,20.30
2018-01-05T03:47:16.656Z,19.50
2018-01-05T03:47:52.065Z,18.20
2018-01-05T03:48:27.252Z,22.90
2018-01-05T03:49:02.489Z,22.40
2018-01-05T03:49:37.669Z,18.90
2018-01-05T03:50:12.985Z,25.10
2018-01-05T03:50:48.091Z,21.60
2018-01-05T03:51:23.184Z,20.70
2018-01-05T03:51:58.798Z,22.00
2018-01-05T03:52:34.076Z,22.80
2018-01-05T03:53:09.480Z,24.30
2018-01-05T03:53:45.304Z,26.70
2018-01-05T03:54:20.627Z,23.10
2018-01-05T03:54:56.357Z,18.00
2018-01-05T03:55:31.762Z,27.60
2018-01-05T03:56:06.977Z,32.70
2018-01-05T03:56:42.373Z,27.60
2018-01-05T03:57:17.805Z,22.50
2018-01-05T03:57:53.526Z,22.20
2018-01-05T03:58:28.716Z,23.10
2018-01-05T03:59:04.136Z,30.30
2018-01-05T03:59:39.783Z,31.70
2018-01-05T04:00:15.110Z,20.30
2018-01-05T04:00:52.431Z,21.90
2018-01-05T04:01:27.821Z,19.30
2018-01-05T04:02:03.733Z,25.30
2018-01-05T04:02:39.242Z,28.10
2018-01-05T04:03:14.555Z,24.90
2018-01-05T04:03:49.868Z,27.90
2018-01-05T04:04:25.258Z,27.90
2018-01-05T04:05:00.996Z,21.80
2018-01-05T04:05:38.989Z,22.60
2018-01-05T04:06:15.130Z,24.80
2018-01-05T04:06:51.440Z,27.50
2018-01-05T04:07:27.144Z,19.20
2018-01-05T04:08:03.088Z,21.40
2018-01-05T04:08:38.390Z,20.50
2018-01-05T04:09:13.705Z,25.90
2018-01-05T04:09:48.929Z,33.10
2018-01-05T04:10:24.360Z,33.80
2018-01-05T04:10:59.596Z,30.20
2018-01-05T04:11:34.988Z,23.60
2018-01-05T04:12:10.417Z,26.40
2018-01-05T04:12:47.016Z,25.00
2018-01-05T04:13:22.405Z,20.50
2018-01-05T04:13:57.811Z,17.30
2018-01-05T04:14:32.990Z,21.60
2018-01-05T04:15:09.002Z,15.80
2018-01-05T04:15:44.641Z,18.50
2018-01-05T04:16:20.138Z,25.80
2018-01-05T04:16:55.462Z,24.20
2018-01-05T04:17:31.163Z,19.90
2018-01-05T04:18:06.291Z,20.30
2018-01-05T04:18:41.492Z,24.60
2018-01-05T04:19:16.715Z,23.40
2018-01-05T04:19:52.130Z,21.20
2018-01-05T04:20:27.344Z,18.70
2018-01-05T04:21:02.805Z,22.40
2018-01-05T04:21:38.599Z,21.20
2018-01-05T04:22:13.925Z,27.10
2018-01-05T04:22:49.534Z,25.60
2018-01-05T04:23:24.835Z,25.80
2018-01-05T04:24:00.363Z,21.50
2018-01-05T04:24:35.649Z,18.30
2018-01-05T04:25:11.882Z,19.80
2018-01-05T04:25:47.398Z,15.30
2018-01-05T04:26:22.919Z,16.00
2018-01-05T04:26:58.255Z,14.50
2018-01-05T04:27:33.565Z,14.10
2018-01-05T04:28:09.090Z,16.20
2018-01-05T04:28:44.518Z,19.20
2018-01-05T04:29:20.012Z,16.20
2018-01-05T04:29:55.352Z,11.40
2018-01-05T04:30:30.636Z,15.70
2018-01-05T04:31:05.871Z,18.30
2018-01-05T04:31:42.295Z,14.50
2018-01-05T04:32:17.930Z,15.40
2018-01-05T04:32:53.368Z,15.90
2018-01-05T04:33:28.686Z,19.60
2018-01-05T04:34:04.217Z,17.70
2018-01-05T04:34:39.799Z,15.70
2018-01-05T04:35:15.323Z,15.20
2018-01-05T04:35:51.714Z,16.70
2018-01-05T04:36:27.133Z,22.10
2018-01-05T04:37:02.750Z,17.10
2018-01-05T04:37:38.684Z,18.60
2018-01-05T04:38:13.808Z,18.70
2018-01-05T04:38:49.402Z,19.80
2018-01-05T04:39:24.721Z,18.80
2018-01-05T04:40:00.116Z,21.90
2018-01-05T04:40:35.749Z,22.50
2018-01-05T04:41:11.282Z,19.70
2018-01-05T04:41:47.481Z,15.90
2018-01-05T04:42:22.931Z,11.70
2018-01-05T04:42:58.236Z,17.70
2018-01-05T04:43:33.659Z,20.90
2018-01-05T04:44:08.691Z,19.90
2018-01-05T04:44:46.290Z,12.10
2018-01-05T04:45:21.721Z,17.80
2018-01-05T04:45:57.427Z,22.80
2018-01-05T04:46:32.955Z,20.50
2018-01-05T04:47:08.472Z,16.50
2018-01-05T04:47:43.901Z,17.30
2018-01-05T04:48:19.433Z,27.80
2018-01-05T04:48:54.919Z,21.20
2018-01-05T04:49:30.142Z,25.40
2018-01-05T04:50:05.453Z,16.10
2018-01-05T04:50:43.665Z,21.20
2018-01-05T04:51:19.273Z,21.90
2018-01-05T04:51:57.158Z,19.30
2018-01-05T04:52:32.485Z,21.40
2018-01-05T04:53:08.827Z,19.70
2018-01-05T04:53:44.316Z,20.30
2018-01-05T04:54:19.626Z,23.00
2018-01-05T04:54:54.924Z,15.70
2018-01-05T04:55:30.432Z,15.00
2018-01-05T04:56:05.753Z,17.90
2018-01-05T04:56:41.836Z,20.60
2018-01-05T04:57:17.474Z,17.40
2018-01-05T04:57:53.548Z,16.20
2018-01-05T04:58:28.991Z,16.00
2018-01-05T04:59:04.111Z,15.80
2018-01-05T04:59:39.851Z,15.10
2018-01-05T05:00:15.163Z,17.00
2018-01-05T05:00:50.652Z,16.20
2018-01-05T05:01:26.070Z,18.30
2018-01-05T05:02:01.366Z,21.00
2018-01-05T05:02:39.797Z,19.50
2018-01-05T05:03:16.103Z,18.00
2018-01-05T05:03:51.736Z,18.90
2018-01-05T05:04:26.743Z,18.60
2018-01-05T05:05:02.134Z,15.10
2018-01-05T05:05:40.160Z,17.30
2018-01-05T05:06:15.376Z,19.70
2018-01-05T05:06:50.963Z,15.80
2018-01-05T05:07:26.483Z,17.10
2018-01-05T05:08:01.871Z,20.90
2018-01-05T05:08:37.490Z,15.90
2018-01-05T05:09:12.935Z,14.40
2018-01-05T05:09:48.524Z,14.80
2018-01-05T05:10:23.792Z,14.20
2018-01-05T05:10:59.233Z,13.90
2018-01-05T05:11:34.645Z,12.90
2018-01-05T05:12:10.174Z,15.30
2018-01-05T05:12:46.263Z,12.30
2018-01-05T05:13:21.585Z,14.40
2018-01-05T05:13:57.169Z,13.80
2018-01-05T05:14:32.626Z,15.80
2018-01-05T05:15:08.057Z,14.60
2018-01-05T05:15:45.148Z,18.50
2018-01-05T05:16:20.458Z,19.30
2018-01-05T05:16:55.751Z,13.50
2018-01-05T05:17:31.157Z,13.70
2018-01-05T05:18:06.466Z,18.20
2018-01-05T05:18:42.660Z,18.50
2018-01-05T05:19:18.272Z,16.10
2018-01-05T05:19:53.891Z,16.90
2018-01-05T05:20:29.202Z,17.70
2018-01-05T05:21:04.618Z,13.40
2018-01-05T05:21:40.412Z,12.80
2018-01-05T05:22:15.620Z,11.80
2018-01-05T05:22:51.008Z,13.20
2018-01-05T05:23:26.232Z,12.10
2018-01-05T05:24:01.321Z,12.30
2018-01-05T05:24:36.822Z,16.60
2018-01-05T05:25:12.536Z,17.30
2018-01-05T05:25:47.752Z,17.60
2018-01-05T05:26:23.340Z,16.70
2018-01-05T05:26:58.459Z,16.30
2018-01-05T05:27:33.671Z,17.90
2018-01-05T05:28:10.265Z,21.50
2018-01-05T05:28:45.475Z,23.60
2018-01-05T05:29:20.856Z,18.90
2018-01-05T05:29:55.975Z,18.50
2018-01-05T05:30:31.524Z,16.90
2018-01-05T05:31:08.528Z,18.40
2018-01-05T05:31:43.934Z,19.30
2018-01-05T05:32:19.123Z,15.70
2018-01-05T05:32:54.434Z,15.80
2018-01-05T05:33:29.644Z,20.80
2018-01-05T05:34:05.331Z,28.30
2018-01-05T05:34:41.365Z,27.30
2018-01-05T05:35:16.759Z,21.20
2018-01-05T05:35:51.993Z,25.60
2018-01-05T05:36:27.417Z,23.10
2018-01-05T05:37:02.602Z,24.20
2018-01-05T05:37:38.223Z,21.00
2018-01-05T05:38:13.615Z,27.30
2018-01-05T05:38:48.735Z,28.50
2018-01-05T05:39:24.945Z,27.30
2018-01-05T05:40:00.153Z,30.60
2018-01-05T05:40:35.873Z,29.60
2018-01-05T05:41:11.297Z,28.60
2018-01-05T05:41:47.305Z,26.40
2018-01-05T05:42:22.808Z,22.30
2018-01-05T05:42:58.923Z,22.50
2018-01-05T05:43:34.041Z,34.70
2018-01-05T05:44:09.621Z,29.80
2018-01-05T05:44:45.048Z,29.80
2018-01-05T05:45:20.434Z,24.70
2018-01-05T05:45:55.576Z,21.10
2018-01-05T05:46:30.933Z,18.50
2018-01-05T05:47:06.523Z,19.10
2018-01-05T05:47:42.051Z,23.80
2018-01-05T05:48:17.425Z,17.50
2018-01-05T05:48:53.139Z,23.80
2018-01-05T05:49:28.645Z,22.70
2018-01-05T05:50:03.936Z,30.10
2018-01-05T05:50:41.451Z,20.50
2018-01-05T05:51:16.835Z,20.60
2018-01-05T05:51:52.188Z,23.10
2018-01-05T05:52:27.594Z,25.10
2018-01-05T05:53:03.227Z,25.60
2018-01-05T05:53:38.737Z,32.90
2018-01-05T05:54:14.034Z,29.20
2018-01-05T05:54:49.444Z,26.70
2018-01-05T05:55:25.153Z,29.30
2018-01-05T05:56:00.440Z,24.70
2018-01-05T05:56:36.150Z,29.20
2018-01-05T05:57:11.673Z,26.20
2018-01-05T05:57:47.080Z,35.10
2018-01-05T05:58:22.466Z,34.30
2018-01-05T05:58:57.795Z,30.60
2018-01-05T05:59:32.995Z,21.50
2018-01-05T06:00:08.494Z,25.30
2018-01-05T06:00:46.098Z,26.20
2018-01-05T06:01:21.307Z,29.50
2018-01-05T06:01:56.813Z,34.20
2018-01-05T06:02:32.073Z,24.70
2018-01-05T06:03:07.863Z,21.60
2018-01-05T06:03:43.380Z,30.00
2018-01-05T06:04:18.705Z,39.30
2018-01-05T06:04:54.126Z,34.40
2018-01-05T06:05:29.146Z,34.40
2018-01-05T06:06:04.546Z,33.60
2018-01-05T06:06:42.259Z,32.90
2018-01-05T06:07:17.570Z,32.90
2018-01-05T06:07:53.106Z,29.60
2018-01-05T06:08:28.395Z,25.70
2018-01-05T06:09:03.802Z,26.40
2018-01-05T06:09:39.223Z,31.30
2018-01-05T06:10:15.101Z,24.70
2018-01-05T06:10:50.723Z,22.20
2018-01-05T06:11:26.510Z,27.20
2018-01-05T06:12:01.921Z,26.40
2018-01-05T06:12:38.347Z,24.10
2018-01-05T06:13:13.665Z,34.20
2018-01-05T06:13:48.880Z,33.80
2018-01-05T06:14:24.061Z,29.50
2018-01-05T06:14:59.478Z,25.90
2018-01-05T06:15:34.666Z,31.50
2018-01-05T06:16:11.473Z,34.90
2018-01-05T06:16:46.646Z,27.70
2018-01-05T06:17:22.088Z,32.90
2018-01-05T06:17:57.402Z,35.20
2018-01-05T06:18:33.022Z,31.00
2018-01-05T06:19:08.609Z,41.70
2018-01-05T06:19:43.928Z,34.20
2018-01-05T06:20:19.303Z,24.10
2018-01-05T06:20:55.115Z,28.40
2018-01-05T06:21:30.504Z,27.60
2018-01-05T06:22:05.916Z,22.80
2018-01-05T06:22:42.620Z,26.40
2018-01-05T06:23:17.935Z,26.60
2018-01-05T06:23:53.889Z,31.30
2018-01-05T06:24:29.574Z,37.90
2018-01-05T06:25:05.002Z,32.30
2018-01-05T06:25:44.593Z,29.30
2018-01-05T06:26:19.904Z,32.60
2018-01-05T06:26:55.625Z,29.20
2018-01-05T06:27:31.112Z,24.90
2018-01-05T06:28:06.468Z,27.60
2018-01-05T06:28:42.240Z,29.90
2018-01-05T06:29:17.783Z,28.20
2018-01-05T06:29:53.201Z,25.90
2018-01-05T06:30:28.594Z,27.90
2018-01-05T06:31:03.900Z,30.20
2018-01-05T06:31:39.490Z,34.90
2018-01-05T06:32:14.701Z,30.80
2018-01-05T06:32:50.227Z,31.20
2018-01-05T06:33:25.741Z,25.60
2018-01-05T06:34:01.160Z,29.90
2018-01-05T06:34:36.697Z,35.40
2018-01-05T06:35:11.808Z,28.70
2018-01-05T06:35:48.327Z,29.70
2018-01-05T06:36:23.837Z,24.00
2018-01-05T06:36:59.147Z,31.90
2018-01-05T06:37:34.542Z,36.60
2018-01-05T06:38:09.849Z,24.20
2018-01-05T06:38:46.190Z,15.50
2018-01-05T06:39:21.493Z,21.70
2018-01-05T06:39:57.963Z,21.90
2018-01-05T06:40:33.272Z,27.10
2018-01-05T06:41:08.477Z,29.10
2018-01-05T06:41:43.787Z,30.70
2018-01-05T06:42:19.268Z,26.70
2018-01-05T06:42:55.383Z,20.40
2018-01-05T06:43:30.864Z,21.10
2018-01-05T06:44:06.285Z,22.70
2018-01-05T06:44:41.674Z,21.60
2018-01-05T06:45:17.119Z,26.40
2018-01-05T06:45:54.035Z,26.90
2018-01-05T06:46:34.726Z,24.20
2018-01-05T06:47:10.048Z,21.00
2018-01-05T06:47:45.356Z,27.40
2018-01-05T06:48:21.649Z,23.50
2018-01-05T06:48:57.766Z,20.10
2018-01-05T06:49:33.146Z,21.20
2018-01-05T06:50:08.463Z,19.60
2018-01-05T06:50:45.401Z,23.30
2018-01-05T06:51:20.702Z,26.00
2018-01-05T06:51:56.040Z,22.40
2018-01-05T06:52:31.424Z,20.30
2018-01-05T06:53:06.640Z,19.60
2018-01-05T06:53:41.929Z,24.30
2018-01-05T06:54:17.344Z,21.50
2018-01-05T06:54:53.057Z,18.70
2018-01-05T06:55:28.549Z,23.10
2018-01-05T06:56:03.896Z,25.50
2018-01-05T06:56:41.272Z,19.40
2018-01-05T06:57:16.985Z,20.10
2018-01-05T06:57:52.302Z,18.80
2018-01-05T06:58:27.685Z,20.10
2018-01-05T06:59:02.892Z,25.10
2018-01-05T06:59:38.598Z,26.60
2018-01-05T07:00:13.801Z,19.00
2018-01-05T07:00:49.210Z,15.00
2018-01-05T07:01:24.936Z,18.90
2018-01-05T07:02:00.244Z,17.00
2018-01-05T07:02:35.736Z,15.10
2018-01-05T07:03:11.041Z,18.80
2018-01-05T07:03:46.655Z,21.30
2018-01-05T07:04:22.141Z,24.50
2018-01-05T07:04:57.476Z,24.50
2018-01-05T07:05:32.766Z,23.30
2018-01-05T07:06:08.161Z,18.30
2018-01-05T07:06:44.304Z,20.00
2018-01-05T07:07:19.615Z,19.00
2018-01-05T07:07:54.944Z,22.10
2018-01-05T07:08:30.123Z,23.20
2018-01-05T07:09:05.527Z,20.40
2018-01-05T07:09:40.721Z,21.10
2018-01-05T07:10:16.380Z,28.60
2018-01-05T07:10:51.625Z,25.30
2018-01-05T07:11:27.237Z,20.50
2018-01-05T07:12:02.775Z,17.60
2018-01-05T07:12:39.470Z,21.20
2018-01-05T07:13:14.878Z,24.20
2018-01-05T07:13:50.870Z,23.30
2018-01-05T07:16:30.542Z,28.50
2018-01-05T07:17:12.177Z,22.90
2018-01-05T07:19:52.922Z,21.40
2018-01-05T07:23:08.337Z,22.80
2018-01-05T07:23:48.543Z,23.10
2018-01-05T07:24:23.831Z,18.20
2018-01-05T07:25:02.184Z,20.70
2018-01-05T07:25:37.877Z,23.50
2018-01-05T07:26:13.277Z,19.40
2018-01-05T07:26:48.642Z,19.30
2018-01-05T07:27:23.925Z,20.40
2018-01-05T07:27:59.004Z,21.00
2018-01-05T07:28:34.518Z,20.60
2018-01-05T07:29:09.713Z,13.60
2018-01-05T07:29:44.969Z,15.40
2018-01-05T07:30:20.263Z,14.50
2018-01-05T07:30:55.621Z,16.10
2018-01-05T07:31:30.809Z,18.40
2018-01-05T07:32:06.258Z,17.30
2018-01-05T07:32:41.775Z,18.00
2018-01-05T07:33:17.258Z,13.20
2018-01-05T07:33:52.549Z,12.80
2018-01-05T07:34:28.247Z,15.10
2018-01-05T07:35:03.509Z,10.70
2018-01-05T07:35:38.612Z,12.60
2018-01-05T07:36:13.706Z,14.80
2018-01-05T07:36:48.878Z,14.00
2018-01-05T07:37:24.567Z,10.30
2018-01-05T07:37:59.940Z,10.80
2018-01-05T07:38:35.133Z,9.80
2018-01-05T07:39:10.660Z,12.20
2018-01-05T07:39:46.037Z,16.40
2018-01-05T07:40:21.650Z,8.80
2018-01-05T07:40:57.040Z,10.50
2018-01-05T07:41:32.346Z,9.10
2018-01-05T07:42:07.741Z,8.80
2018-01-05T07:42:43.111Z,11.20
2018-01-05T07:43:18.405Z,13.80
2018-01-05T07:43:54.581Z,12.40
2018-01-05T07:44:29.912Z,10.60
2018-01-05T07:45:05.216Z,11.90
2018-01-05T07:45:42.083Z,10.00
2018-01-05T07:46:17.689Z,11.80